Time;durP1;ratioP1;P1;durP2;ratioP2;P2;SDS_P1;SDS_P2;PMS_P1;PMS_P2;Temp;Humidity;BMP_temperature;BMP_pressure;BME280_temperature;BME280_humidity;BME280_pressure;Samples;Min_cycle;Max_cycle;Signal;HPM_P1;HPM_P2
2022/11/12 00:00:34;;;;;;;113.45;67.93;;;;;;;3.10;100.00;103032.53;5072151;28;20033;-47
2022/11/12 00:03:00;;;;;;;107.57;64.25;;;;;;;3.02;100.00;103030.91;5072004;28;20027;-48
2022/11/12 00:05:25;;;;;;;92.63;56.50;;;;;;;2.94;100.00;103030.19;5074770;28;20314;-46
2022/11/12 00:07:51;;;;;;;111.40;65.90;;;;;;;2.99;100.00;103035.69;5076281;28;20017;-44
2022/11/12 00:10:16;;;;;;;139.35;81.93;;;;;;;3.10;100.00;103046.94;5075964;28;20036;-47
2022/11/12 00:12:42;;;;;;;151.32;88.22;;;;;;;3.15;100.00;103045.72;5075749;28;20108;-47
2022/11/12 00:15:07;;;;;;;150.15;89.43;;;;;;;3.19;100.00;103045.25;5076357;28;20035;-46
2022/11/12 00:17:33;;;;;;;142.23;85.78;;;;;;;3.20;100.00;103052.16;5075586;28;20464;-48
2022/11/12 00:19:58;;;;;;;156.55;97.72;;;;;;;3.28;100.00;103053.75;5075982;28;20380;-46
2022/11/12 00:22:23;;;;;;;154.40;91.97;;;;;;;3.24;100.00;103046.59;5076083;28;20021;-47
2022/11/12 00:24:49;;;;;;;155.68;97.70;;;;;;;3.33;100.00;103051.66;5075284;28;20027;-47
2022/11/12 00:27:14;;;;;;;159.02;100.35;;;;;;;3.32;100.00;103054.03;5075752;28;20024;-47
2022/11/12 00:29:39;;;;;;;164.82;97.75;;;;;;;3.30;100.00;103056.44;5075693;28;20028;-48
2022/11/12 00:32:06;;;;;;;165.02;100.55;;;;;;;3.28;100.00;103057.97;5075295;28;20024;-48
2022/11/12 00:34:32;;;;;;;158.20;95.60;;;;;;;3.15;100.00;103055.91;5075821;28;20028;-45
2022/11/12 00:36:58;;;;;;;150.25;97.97;;;;;;;3.24;100.00;103054.22;5075764;28;20074;-48
2022/11/12 00:39:23;;;;;;;170.82;107.65;;;;;;;3.24;100.00;103059.31;5075542;28;20032;-47
2022/11/12 00:41:49;;;;;;;169.80;105.68;;;;;;;3.29;100.00;103055.56;5075217;28;20055;-48
2022/11/12 00:44:14;;;;;;;174.07;111.75;;;;;;;3.27;100.00;103056.16;5075708;28;20029;-47
2022/11/12 00:46:39;;;;;;;188.30;120.47;;;;;;;3.32;100.00;103060.06;5074787;28;20032;-46
2022/11/12 00:49:04;;;;;;;174.30;113.53;;;;;;;3.19;100.00;103057.06;5075228;28;20505;-47
2022/11/12 00:51:30;;;;;;;173.80;115.00;;;;;;;3.17;100.00;103046.75;5075528;28;20032;-48
2022/11/12 00:53:55;;;;;;;156.52;102.75;;;;;;;3.05;100.00;103043.03;5074779;28;20024;-48
2022/11/12 00:56:20;;;;;;;167.13;110.97;;;;;;;3.15;100.00;103040.63;5075338;28;20020;-48
2022/11/12 00:58:45;;;;;;;184.18;113.43;;;;;;;3.16;100.00;103041.50;5075291;28;20070;-47
2022/11/12 01:01:15;;;;;;;167.27;108.97;;;;;;;3.10;100.00;103044.38;5074816;28;20032;-47
2022/11/12 01:03:41;;;;;;;164.57;106.05;;;;;;;3.11;100.00;103044.53;5074760;28;20032;-46
2022/11/12 01:06:15;;;;;;;157.40;100.32;;;;;;;3.07;100.00;103044.06;5074718;28;20470;-47
2022/11/12 01:08:41;;;;;;;139.70;91.45;;;;;;;3.08;100.00;103041.66;5074660;28;20142;-48
2022/11/12 01:11:12;;;;;;;140.77;91.95;;;;;;;3.01;100.00;103051.13;5075267;28;20204;-48
2022/11/12 01:13:40;;;;;;;138.05;94.03;;;;;;;3.07;100.00;103046.63;5074238;28;20392;-44
2022/11/12 01:16:18;;;;;;;137.93;91.03;;;;;;;3.03;100.00;103053.06;5074744;28;20060;-45
2022/11/12 01:18:46;;;;;;;138.88;90.60;;;;;;;3.06;100.00;103045.72;5074872;28;20025;-46
2022/11/12 01:21:12;;;;;;;133.90;85.57;;;;;;;3.00;100.00;103041.72;5074610;28;20021;-47
2022/11/12 01:23:41;;;;;;;129.18;85.80;;;;;;;2.99;100.00;103040.78;5074318;28;20488;-46
2022/11/12 01:26:13;;;;;;;114.65;79.35;;;;;;;2.89;100.00;103038.09;5074903;28;20025;-48
2022/11/12 01:28:38;;;;;;;107.97;72.40;;;;;;;2.77;100.00;103032.75;5073838;28;20032;-47
2022/11/12 01:31:21;;;;;;;106.18;67.03;;;;;;;2.71;100.00;103043.25;5074858;28;20039;-47
2022/11/12 01:33:52;;;;;;;101.43;64.68;;;;;;;2.58;100.00;103041.16;5074420;28;20086;-47
2022/11/12 01:36:18;;;;;;;113.97;74.70;;;;;;;2.69;100.00;103037.09;5074245;28;20021;-47
2022/11/12 01:38:45;;;;;;;112.03;73.28;;;;;;;2.62;100.00;103038.16;5073983;28;20039;-48
2022/11/12 01:41:14;;;;;;;108.00;70.72;;;;;;;2.55;100.00;103039.94;5074223;28;20063;-49
2022/11/12 01:43:40;;;;;;;113.93;71.20;;;;;;;2.58;100.00;103035.13;5074217;28;20025;-48
2022/11/12 01:46:23;;;;;;;114.85;72.90;;;;;;;2.66;100.00;103035.88;5074788;28;20023;-47
2022/11/12 01:48:52;;;;;;;119.80;72.07;;;;;;;2.62;100.00;103025.41;5073488;28;20392;-48
2022/11/12 01:51:20;;;;;;;115.43;69.00;;;;;;;2.60;100.00;103031.09;5074124;28;20396;-49
2022/11/12 01:53:50;;;;;;;109.65;70.95;;;;;;;2.65;100.00;103027.38;5074298;28;20036;-47
2022/11/12 01:56:16;;;;;;;114.18;68.65;;;;;;;2.57;100.00;103018.97;5073936;28;20104;-45
2022/11/12 01:58:43;;;;;;;105.90;68.00;;;;;;;2.58;100.00;103023.34;5073854;28;20032;-46
2022/11/12 02:01:08;;;;;;;103.53;64.40;;;;;;;2.49;100.00;103026.63;5074226;28;20464;-48
2022/11/12 02:03:33;;;;;;;99.47;63.83;;;;;;;2.46;100.00;103024.66;5073423;28;20115;-46
2022/11/12 02:06:07;;;;;;;94.55;60.13;;;;;;;2.37;100.00;103023.78;5073954;28;20027;-47
2022/11/12 02:08:33;;;;;;;100.45;65.28;;;;;;;2.43;100.00;103026.94;5074268;28;20035;-47
2022/11/12 02:11:12;;;;;;;111.32;68.00;;;;;;;2.47;100.00;103023.94;5073438;28;20020;-47
2022/11/12 02:16:24;;;;;;;127.32;72.18;;;;;;;2.61;100.00;103023.63;5073432;28;20041;-48
2022/11/12 02:18:49;;;;;;;116.28;70.80;;;;;;;2.55;100.00;103011.94;5073591;28;20016;-47
2022/11/12 02:21:18;;;;;;;109.63;69.22;;;;;;;2.53;100.00;103022.00;5074017;28;20029;-47
2022/11/12 02:23:44;;;;;;;108.95;66.93;;;;;;;2.50;100.00;103008.94;5072992;28;20017;-48
2022/11/12 02:26:09;;;;;;;106.22;66.25;;;;;;;2.47;100.00;103019.72;5073505;28;20032;-48
2022/11/12 02:28:34;;;;;;;104.13;62.72;;;;;;;2.42;100.00;103020.03;5072680;28;20434;-47
2022/11/12 02:31:00;;;;;;;106.32;67.20;;;;;;;2.51;100.00;103025.13;5073049;28;20099;-47
2022/11/12 02:33:25;;;;;;;110.28;66.45;;;;;;;2.52;100.00;103032.91;5073620;28;20032;-47
2022/11/12 02:35:50;;;;;;;110.25;69.40;;;;;;;2.51;100.00;103020.94;5073513;28;20021;-47
2022/11/12 02:38:15;;;;;;;103.65;66.88;;;;;;;2.50;100.00;103029.31;5073094;28;20427;-48
2022/11/12 02:40:41;;;;;;;117.47;67.32;;;;;;;2.46;100.00;103020.47;5072933;28;20029;-48
2022/11/12 02:43:06;;;;;;;103.95;63.72;;;;;;;2.43;100.00;103014.19;5073408;28;20495;-46
2022/11/12 02:45:31;;;;;;;98.38;60.63;;;;;;;2.40;100.00;103017.34;5072722;28;20033;-46
2022/11/12 02:47:57;;;;;;;95.70;60.95;;;;;;;2.41;100.00;103018.22;5072926;28;20032;-48
2022/11/12 02:50:23;;;;;;;99.88;58.15;;;;;;;2.39;100.00;103018.09;5073217;28;20438;-47
2022/11/12 02:52:48;;;;;;;86.68;55.40;;;;;;;2.27;100.00;103015.25;5072322;28;20040;-48
2022/11/12 02:55:13;;;;;;;82.25;52.25;;;;;;;2.14;100.00;103017.31;5073236;28;20538;-47
2022/11/12 02:57:39;;;;;;;90.82;56.00;;;;;;;2.24;100.00;103020.00;5072941;28;20021;-44
2022/11/12 03:00:08;;;;;;;75.78;49.20;;;;;;;2.13;100.00;103011.34;5072576;28;20024;-49
2022/11/12 03:02:34;;;;;;;63.40;44.40;;;;;;;2.08;100.00;102996.34;5072512;28;20021;-47
2022/11/12 03:04:59;;;;;;;66.18;43.50;;;;;;;2.05;100.00;102996.06;5073195;28;20028;-46
2022/11/12 03:07:24;;;;;;;78.43;50.42;;;;;;;2.02;100.00;103000.84;5072696;28;20166;-48
2022/11/12 03:09:49;;;;;;;77.50;50.58;;;;;;;2.03;100.00;103002.63;5072484;28;20032;-47
2022/11/12 03:12:15;;;;;;;75.97;50.08;;;;;;;1.97;100.00;103006.34;5072998;28;20028;-47
2022/11/12 03:14:40;;;;;;;69.50;46.90;;;;;;;1.92;100.00;103005.00;5072077;28;20047;-46
2022/11/12 03:17:05;;;;;;;77.75;51.30;;;;;;;2.00;100.00;103012.50;5072697;28;20021;-44
2022/11/12 03:19:31;;;;;;;76.05;50.85;;;;;;;1.98;100.00;103018.34;5072733;28;20086;-43
2022/11/12 03:21:56;;;;;;;71.93;48.03;;;;;;;1.92;100.00;103010.09;5072186;28;20025;-44
2022/11/12 03:24:21;;;;;;;70.43;47.45;;;;;;;1.90;100.00;103008.13;5072919;28;20078;-47
2022/11/12 03:26:46;;;;;;;65.72;46.33;;;;;;;1.83;100.00;103013.38;5072039;28;20055;-46
2022/11/12 03:29:12;;;;;;;64.40;46.75;;;;;;;1.81;100.00;103010.69;5072405;28;20036;-47
2022/11/12 03:31:37;;;;;;;67.65;47.88;;;;;;;1.93;100.00;103016.09;5072634;28;20376;-48
2022/11/12 03:34:03;;;;;;;78.60;50.55;;;;;;;1.91;100.00;103021.03;5072374;28;20099;-47
2022/11/12 03:36:29;;;;;;;76.25;50.65;;;;;;;1.90;100.00;103019.22;5072626;28;20013;-46
2022/11/12 03:38:54;;;;;;;74.90;51.05;;;;;;;1.93;100.00;103022.06;5072393;28;20048;-46
2022/11/12 03:41:19;;;;;;;82.93;52.70;;;;;;;1.95;100.00;103020.59;5072272;28;20029;-48
2022/11/12 03:43:45;;;;;;;90.00;52.67;;;;;;;1.97;100.00;103023.28;5071844;28;20032;-48
2022/11/12 03:46:10;;;;;;;81.95;49.60;;;;;;;1.89;100.00;103014.88;5072862;28;20016;-47
2022/11/12 03:48:35;;;;;;;72.45;46.83;;;;;;;1.93;100.00;103016.97;5071700;28;20048;-48
2022/11/12 03:51:01;;;;;;;85.00;50.78;;;;;;;1.92;100.00;103022.81;5072626;28;20029;-48
2022/11/12 03:53:26;;;;;;;81.25;49.95;;;;;;;1.89;100.00;103025.06;5072653;28;20028;-47
2022/11/12 03:55:52;;;;;;;90.47;53.63;;;;;;;1.93;100.00;103027.16;5071751;28;20108;-47
2022/11/12 03:58:17;;;;;;;81.75;49.15;;;;;;;1.87;100.00;103025.66;5072208;28;20025;-47
2022/11/12 04:00:42;;;;;;;83.60;50.40;;;;;;;1.88;100.00;103025.78;5072139;28;20027;-46
2022/11/12 04:03:08;;;;;;;81.22;50.58;;;;;;;1.90;100.00;103031.94;5072082;28;20052;-48
2022/11/12 04:08:35;;;;;;;79.90;49.85;;;;;;;1.89;100.00;103030.13;5072850;28;20098;-46
2022/11/12 04:11:12;;;;;;;76.68;47.55;;;;;;;1.87;100.00;103020.56;5071604;28;20126;-47
2022/11/12 04:13:38;;;;;;;74.13;47.40;;;;;;;1.80;100.00;103019.06;5072395;28;20036;-47
2022/11/12 04:21:55;;;;;;;75.07;45.10;;;;;;;1.79;100.00;103013.06;5072473;28;20040;-45
2022/11/12 04:27:14;;;;;;;72.35;44.70;;;;;;;1.82;100.00;102997.19;5072377;28;20090;-45
2022/11/12 04:32:24;;;;;;;65.97;43.33;;;;;;;1.75;100.00;103002.44;5072293;28;20039;-47
2022/11/12 04:34:50;;;;;;;69.47;43.88;;;;;;;1.76;100.00;102989.00;5071977;28;20028;-47
2022/11/12 04:37:15;;;;;;;73.75;46.15;;;;;;;1.73;100.00;102988.66;5071800;28;20032;-47
2022/11/12 04:39:40;;;;;;;79.20;47.30;;;;;;;1.74;100.00;103000.63;5071779;28;20013;-46
2022/11/12 04:45:04;;;;;;;71.90;44.90;;;;;;;1.75;100.00;102993.16;5071760;28;20082;-48
2022/11/12 04:47:38;;;;;;;63.00;41.13;;;;;;;1.62;100.00;102997.78;5072223;28;20052;-48
2022/11/12 04:50:16;;;;;;;61.55;41.47;;;;;;;1.58;100.00;102994.00;5071913;28;20041;-48
2022/11/12 04:52:41;;;;;;;55.92;38.58;;;;;;;1.56;100.00;102987.91;5074811;28;20040;-46
2022/11/12 04:55:07;;;;;;;70.85;44.55;;;;;;;1.62;100.00;102993.56;5075489;28;20043;-48
2022/11/12 04:57:33;;;;;;;61.75;43.67;;;;;;;1.59;100.00;102990.72;5075915;28;20016;-48
2022/11/12 04:59:58;;;;;;;65.03;41.47;;;;;;;1.54;100.00;102989.38;5074799;28;20472;-45
2022/11/12 05:02:24;;;;;;;58.28;40.30;;;;;;;1.55;100.00;102991.19;5075579;28;20035;-46
2022/11/12 05:04:49;;;;;;;66.50;41.60;;;;;;;1.53;100.00;102982.50;5075297;28;20024;-49
2022/11/12 05:07:15;;;;;;;64.88;42.40;;;;;;;1.50;100.00;102977.09;5074480;28;20020;-47
2022/11/12 05:09:41;;;;;;;63.85;41.50;;;;;;;1.50;100.00;102979.66;5075180;28;20035;-46
2022/11/12 05:12:06;;;;;;;71.72;45.67;;;;;;;1.52;100.00;102975.59;5074876;28;20020;-48
2022/11/12 05:14:32;;;;;;;65.53;42.72;;;;;;;1.51;100.00;102973.81;5075070;28;20107;-47
2022/11/12 05:16:57;;;;;;;65.55;43.92;;;;;;;1.50;100.00;102977.09;5075138;28;20104;-48
2022/11/12 05:19:22;;;;;;;67.32;42.97;;;;;;;1.51;100.00;102983.06;5074645;28;20775;-47
2022/11/12 05:22:06;;;;;;;71.53;45.42;;;;;;;1.57;100.00;102974.41;5074534;28;20427;-48
2022/11/12 05:24:33;;;;;;;66.28;44.75;;;;;;;1.51;100.00;102978.91;5075211;28;20035;-48
2022/11/12 05:26:58;;;;;;;68.88;44.03;;;;;;;1.50;100.00;102969.47;5074394;28;20024;-48
2022/11/12 05:29:24;;;;;;;73.97;46.15;;;;;;;1.52;100.00;102965.44;5074717;28;20035;-47
2022/11/12 05:31:49;;;;;;;72.15;46.85;;;;;;;1.54;100.00;102966.50;5074682;28;20024;-47
2022/11/12 05:34:14;;;;;;;81.18;49.30;;;;;;;1.52;100.00;102962.91;5074242;28;20464;-45
2022/11/12 05:36:40;;;;;;;79.10;48.72;;;;;;;1.55;100.00;102964.84;5074416;28;20060;-46
2022/11/12 05:39:05;;;;;;;85.90;49.90;;;;;;;1.59;100.00;102962.78;5075018;28;20084;-48
2022/11/12 05:41:30;;;;;;;77.68;50.83;;;;;;;1.66;100.00;102958.31;5074083;28;20032;-46
2022/11/12 05:43:56;;;;;;;81.75;50.30;;;;;;;1.64;100.00;102963.25;5074199;28;20056;-47
2022/11/12 05:46:21;;;;;;;82.53;49.25;;;;;;;1.69;100.00;102958.59;5074609;28;20042;-48
2022/11/12 05:48:46;;;;;;;89.80;51.45;;;;;;;1.69;100.00;102958.59;5073470;28;20113;-48
2022/11/12 05:51:12;;;;;;;79.82;50.22;;;;;;;1.74;100.00;102952.34;5074565;28;20112;-46
2022/11/12 05:53:38;;;;;;;83.35;49.63;;;;;;;1.73;100.00;102958.16;5074411;28;20381;-48
2022/11/12 05:56:04;;;;;;;81.82;49.22;;;;;;;1.67;100.00;102970.28;5074076;28;20033;-47
2022/11/12 05:58:31;;;;;;;77.88;46.28;;;;;;;1.70;100.00;102973.13;5074092;28;20031;-48
2022/11/12 06:00:56;;;;;;;88.88;51.40;;;;;;;1.73;100.00;102975.94;5073915;28;20464;-48
2022/11/12 06:03:23;;;;;;;76.10;48.30;;;;;;;1.68;100.00;102966.97;5072275;28;20028;-48
2022/11/12 06:05:48;;;;;;;69.90;44.95;;;;;;;1.69;100.00;102966.22;5074025;28;20384;-47
2022/11/12 06:08:14;;;;;;;79.00;46.08;;;;;;;1.60;100.00;102966.19;5074246;28;20539;-49
2022/11/12 06:10:39;;;;;;;71.72;43.85;;;;;;;1.55;100.00;102964.84;5073165;28;20025;-46
2022/11/12 06:13:04;;;;;;;75.65;46.03;;;;;;;1.59;100.00;102964.44;5074023;28;20086;-44
2022/11/12 06:15:30;;;;;;;66.88;44.10;;;;;;;1.56;100.00;102972.66;5073536;28;20035;-49
2022/11/12 06:17:55;;;;;;;66.50;43.00;;;;;;;1.54;100.00;102968.16;5073421;28;20032;-47
2022/11/12 06:20:22;;;;;;;69.95;41.92;;;;;;;1.49;100.00;102965.13;5074117;28;20021;-49
2022/11/12 06:22:48;;;;;;;68.57;43.60;;;;;;;1.55;100.00;102975.94;5073132;28;20032;-48
2022/11/12 06:25:13;;;;;;;67.43;44.00;;;;;;;1.50;100.00;102972.03;5073806;28;20090;-45
2022/11/12 06:27:39;;;;;;;67.72;43.20;;;;;;;1.49;100.00;102975.31;5073722;28;20024;-48
2022/11/12 06:30:06;;;;;;;70.03;42.85;;;;;;;1.43;100.00;102967.97;5073102;28;20035;-45
2022/11/12 06:32:31;;;;;;;66.00;41.63;;;;;;;1.43;100.00;102970.53;5073429;28;20035;-46
2022/11/12 06:34:56;;;;;;;63.63;42.83;;;;;;;1.36;100.00;102977.38;5073236;28;20096;-48
2022/11/12 06:37:22;;;;;;;73.72;45.00;;;;;;;1.42;100.00;102973.78;5073223;28;20036;-47
2022/11/12 06:39:48;;;;;;;73.35;45.20;;;;;;;1.40;100.00;102977.81;5073094;28;20028;-48
2022/11/12 06:42:13;;;;;;;72.95;46.03;;;;;;;1.43;100.00;102979.75;5073472;28;20020;-46
2022/11/12 06:44:39;;;;;;;78.22;46.35;;;;;;;1.46;100.00;102980.09;5072652;28;20537;-44
2022/11/12 06:47:04;;;;;;;76.10;44.92;;;;;;;1.50;100.00;102972.03;5073126;28;20433;-46
2022/11/12 06:49:29;;;;;;;70.50;43.90;;;;;;;1.40;100.00;102964.22;5073124;28;20059;-44
2022/11/12 06:51:55;;;;;;;73.47;46.38;;;;;;;1.44;100.00;102971.41;5072652;28;20017;-45
2022/11/12 06:54:20;;;;;;;79.82;47.78;;;;;;;1.52;100.00;102979.78;5073114;28;20027;-46
2022/11/12 06:56:45;;;;;;;80.70;49.13;;;;;;;1.50;100.00;102977.09;5072984;28;20031;-49
2022/11/12 06:59:10;;;;;;;82.40;47.58;;;;;;;1.58;100.00;102986.38;5072732;28;20016;-45
2022/11/12 07:01:36;;;;;;;80.38;48.35;;;;;;;1.67;100.00;102985.53;5072569;28;20024;-47
2022/11/12 07:04:01;;;;;;;81.13;50.53;;;;;;;1.68;100.00;102983.13;5073049;28;20016;-45
2022/11/12 07:06:26;;;;;;;78.75;49.90;;;;;;;1.72;100.00;102984.34;5072199;28;20073;-45
2022/11/12 07:08:52;;;;;;;75.63;46.40;;;;;;;1.68;100.00;102993.31;5072864;28;20039;-47
2022/11/12 07:11:18;;;;;;;78.10;47.72;;;;;;;1.73;100.00;102987.03;5073127;28;20047;-46
2022/11/12 07:13:44;;;;;;;82.93;49.83;;;;;;;1.75;100.00;102984.66;5071590;28;20047;-47
2022/11/12 07:16:10;;;;;;;76.05;47.15;;;;;;;1.77;100.00;102984.06;5072917;28;20376;-44
2022/11/12 07:18:36;;;;;;;83.43;52.13;;;;;;;1.83;100.00;102991.38;5072596;28;20032;-46
2022/11/12 07:21:10;;;;;;;80.25;49.67;;;;;;;1.86;100.00;102993.31;5072015;28;20021;-45
2022/11/12 07:23:36;;;;;;;79.80;51.00;;;;;;;1.91;100.00;102982.88;5072663;28;20024;-47
2022/11/12 07:26:22;;;;;;;80.15;51.88;;;;;;;1.96;100.00;102986.78;5072329;28;20952;-45
2022/11/12 07:28:49;;;;;;;85.35;54.00;;;;;;;2.01;100.00;102984.69;5072162;28;20115;-46
2022/11/12 07:31:16;;;;;;;87.10;54.05;;;;;;;2.13;100.00;102980.81;5073032;28;20031;-49
2022/11/12 07:33:42;;;;;;;81.63;54.33;;;;;;;2.20;100.00;102983.97;5071901;28;20360;-46
2022/11/12 07:36:10;;;;;;;84.57;51.28;;;;;;;2.32;100.00;102987.69;5072584;28;20796;-48
2022/11/12 07:38:37;;;;;;;77.82;49.80;;;;;;;2.40;100.00;102988.44;5072490;28;20380;-46
2022/11/12 07:41:05;;;;;;;89.32;51.03;;;;;;;2.44;100.00;102987.97;5072037;28;20031;-48
2022/11/12 07:43:31;;;;;;;;;;;;;;;2.46;100.00;102996.66;5072794;28;20028;-47
2022/11/12 07:46:01;;;;;;;81.88;50.30;;;;;;;2.47;100.00;103001.91;5072577;28;20342;-47
2022/11/12 07:48:30;;;;;;;81.63;50.95;;;;;;;2.53;100.00;102996.53;5071723;28;20031;-47
2022/11/12 07:51:07;;;;;;;85.10;50.25;;;;;;;2.55;100.00;103002.66;5072403;28;20024;-47
2022/11/12 07:53:32;;;;;;;76.88;49.03;;;;;;;2.67;100.00;102991.84;5072524;28;20032;-46
2022/11/12 07:55:59;;;;;;;86.78;50.03;;;;;;;2.77;100.00;102989.44;5071400;28;20387;-44
2022/11/12 07:58:26;;;;;;;75.43;48.30;;;;;;;2.92;100.00;103000.22;5072478;28;20456;-46
2022/11/12 08:00:53;;;;;;;74.57;48.47;;;;;;;3.01;100.00;103000.16;5071903;28;20025;-45
2022/11/12 08:03:19;;;;;;;76.43;46.90;;;;;;;3.10;100.00;103007.03;5072190;28;20494;-46
2022/11/12 08:05:45;;;;;;;69.38;45.70;;;;;;;3.10;100.00;103008.72;5072201;28;20104;-47
2022/11/12 08:08:11;;;;;;;74.32;45.92;;;;;;;3.23;100.00;103009.09;5071789;28;20146;-48
2022/11/12 08:10:36;;;;;;;67.80;44.72;;;;;;;3.22;100.00;103008.97;5071783;28;20111;-45
2022/11/12 08:13:02;;;;;;;73.93;44.78;;;;;;;3.26;100.00;103008.50;5072549;28;20059;-45
2022/11/12 08:15:28;;;;;;;68.75;43.90;;;;;;;3.35;100.00;103023.75;5071968;28;20052;-49
2022/11/12 08:17:53;;;;;;;64.32;44.30;;;;;;;3.44;100.00;103025.50;5072005;28;20063;-46
2022/11/12 08:20:18;;;;;;;67.75;43.55;;;;;;;3.49;100.00;103025.06;5072478;28;20178;-45
2022/11/12 08:22:43;;;;;;;86.65;50.83;;;;;;;3.68;100.00;103020.91;5071662;28;20059;-47
2022/11/12 08:25:09;;;;;;;73.60;48.33;;;;;;;3.68;100.00;103026.00;5072201;28;20020;-46
2022/11/12 08:27:34;;;;;;;79.75;49.22;;;;;;;3.83;100.00;103031.63;5075878;28;20029;-47
2022/11/12 08:30:00;;;;;;;77.68;47.42;;;;;;;3.93;100.00;103029.16;5075519;28;20040;-48
2022/11/12 08:32:25;;;;;;;78.82;48.65;;;;;;;4.02;100.00;103029.09;5075832;28;20476;-45
2022/11/12 08:34:50;;;;;;;90.97;57.95;;;;;;;4.10;100.00;103020.47;5075581;28;20130;-45
2022/11/12 08:37:15;;;;;;;124.28;79.93;;;;;;;4.15;100.00;103030.25;5075400;28;20535;-47
2022/11/12 08:39:41;;;;;;;86.78;54.38;;;;;;;4.10;100.00;103027.25;5075113;28;20024;-47
2022/11/12 08:42:06;;;;;;;79.47;48.70;;;;;;;4.11;100.00;103027.38;5075711;28;20443;-47
2022/11/12 08:44:31;;;;;;;73.53;46.13;;;;;;;4.11;100.00;103023.94;5075168;28;20054;-49
2022/11/12 08:46:58;;;;;;;77.10;47.65;;;;;;;4.21;100.00;103021.47;5075375;28;20028;-48
2022/11/12 08:49:23;;;;;;;74.68;43.97;;;;;;;4.33;100.00;103028.44;5075389;28;20044;-46
2022/11/12 08:51:48;;;;;;;66.95;43.17;;;;;;;4.40;100.00;103031.69;5074497;28;20035;-47
2022/11/12 08:54:14;;;;;;;70.35;43.72;;;;;;;4.53;100.00;103035.34;5075494;28;20023;-44
2022/11/12 08:56:39;;;;;;;69.22;45.72;;;;;;;4.56;100.00;103039.06;5075477;28;20078;-48
2022/11/12 08:59:04;;;;;;;66.28;41.42;;;;;;;4.69;100.00;103029.94;5074820;28;20388;-47
2022/11/12 09:01:30;;;;;;;72.32;43.03;;;;;;;4.81;100.00;103033.56;5075493;28;20032;-47
2022/11/12 09:03:55;;;;;;;62.20;39.67;;;;;;;4.97;100.00;103032.38;5075043;28;20472;-44
2022/11/12 09:06:21;;;;;;;70.38;39.15;;;;;;;5.09;100.00;103021.56;5074556;28;20357;-47
2022/11/12 09:08:46;;;;;;;65.45;39.03;;;;;;;5.23;100.00;103025.31;5074850;28;20082;-47
2022/11/12 09:11:11;;;;;;;66.97;39.03;;;;;;;5.37;100.00;103028.16;5074779;28;20028;-48
2022/11/12 09:13:36;;;;;;;61.45;36.75;;;;;;;5.52;100.00;103034.59;5074799;28;20460;-45
2022/11/12 09:16:04;;;;;;;64.78;39.08;;;;;;;5.74;100.00;103026.19;5075192;28;20067;-48
2022/11/12 09:18:30;;;;;;;73.22;43.47;;;;;;;6.06;100.00;103025.47;5074791;28;20402;-49
2022/11/12 09:21:00;;;;;;;65.45;39.20;;;;;;;6.41;100.00;103024.91;5074758;28;20468;-49
2022/11/12 09:23:26;;;;;;;56.85;33.67;;;;;;;6.68;100.00;103025.34;5074952;28;20025;-47
2022/11/12 09:25:53;;;;;;;51.88;31.38;;;;;;;6.96;100.00;103033.59;5074468;28;20021;-49
2022/11/12 09:28:18;;;;;;;47.80;31.38;;;;;;;7.19;100.00;103034.50;5074818;28;20086;-43
2022/11/12 09:30:48;;;;;;;52.28;31.08;;;;;;;7.49;100.00;103038.56;5074707;28;20020;-47
2022/11/12 09:33:18;;;;;;;48.40;29.27;;;;;;;7.74;100.00;103033.63;5074337;28;20067;-49
2022/11/12 09:35:44;;;;;;;50.28;29.52;;;;;;;7.99;100.00;103025.25;5074470;28;20033;-47
2022/11/12 09:38:10;;;;;;;47.88;30.67;;;;;;;8.17;100.00;103025.72;5074668;28;20025;-48
2022/11/12 09:40:51;;;;;;;48.30;31.35;;;;;;;8.39;100.00;103014.44;5074153;28;20029;-47
2022/11/12 09:43:27;;;;;;;45.38;29.30;;;;;;;8.60;100.00;103024.53;5074919;28;20116;-49
2022/11/12 09:45:56;;;;;;;50.22;28.85;;;;;;;8.67;100.00;103026.78;5074325;28;20024;-48
2022/11/12 09:48:32;;;;;;;43.83;27.77;;;;;;;8.78;98.97;103030.13;5073524;28;20078;-47
2022/11/12 09:51:09;;;;;;;44.33;28.20;;;;;;;9.03;100.00;103025.94;5074437;28;20033;-47
2022/11/12 09:53:43;;;;;;;42.80;26.38;;;;;;;9.18;94.56;103031.31;5073760;28;20494;-48
2022/11/12 09:56:12;;;;;;;41.92;27.20;;;;;;;9.40;99.53;103030.22;5074217;28;20024;-47
2022/11/12 09:58:37;;;;;;;39.42;25.42;;;;;;;9.41;94.98;103024.28;5074089;28;20472;-46
2022/11/12 10:01:21;;;;;;;38.53;26.25;;;;;;;9.48;95.70;103026.50;5073800;28;20112;-45
2022/11/12 10:04:05;;;;;;;50.30;29.05;;;;;;;9.78;97.85;103026.81;5073973;28;20107;-46
2022/11/12 10:06:44;;;;;;;47.95;29.30;;;;;;;9.96;96.53;103024.59;5074272;28;20111;-49
2022/11/12 10:09:14;;;;;;;44.30;26.58;;;;;;;10.19;94.62;103014.94;5073264;28;20028;-49
2022/11/12 10:14:56;;;;;;;47.08;26.83;;;;;;;10.81;90.33;103006.91;5073635;28;20124;-46
2022/11/12 10:17:40;;;;;;;43.22;27.10;;;;;;;11.24;93.14;103007.81;5073766;28;20177;-49
2022/11/12 10:20:24;;;;;;;44.00;26.27;;;;;;;11.55;90.65;103004.53;5074167;28;20032;-49
2022/11/12 10:23:23;;;;;;;44.65;26.38;;;;;;;11.94;95.79;103010.28;5073044;28;20089;-49
2022/11/12 10:25:52;;;;;;;46.42;28.17;;;;;;;12.10;94.61;103002.66;5073469;28;20039;-49
2022/11/12 10:28:26;;;;;;;42.00;26.30;;;;;;;12.33;92.54;103006.56;5073957;28;20112;-46
2022/11/12 10:31:00;;;;;;;39.47;27.20;;;;;;;12.39;86.96;103006.00;5072909;28;20031;-46
2022/11/12 10:33:30;;;;;;;40.95;25.42;;;;;;;12.45;82.95;103001.19;5073806;28;20036;-47
2022/11/12 10:36:11;;;;;;;41.53;25.67;;;;;;;12.79;81.08;103003.06;5072871;28;20411;-49
2022/11/12 10:38:37;;;;;;;44.13;28.17;;;;;;;12.95;80.65;102997.03;5073329;28;20021;-49
2022/11/12 10:41:18;;;;;;;38.97;25.15;;;;;;;13.02;80.69;103006.03;5073667;28;20075;-45
2022/11/12 10:43:59;;;;;;;47.53;27.63;;;;;;;13.24;85.08;102997.72;5072766;28;20029;-50
2022/11/12 10:46:30;;;;;;;41.50;26.77;;;;;;;13.43;84.61;102994.44;5073649;28;20044;-50
2022/11/12 10:49:04;;;;;;;46.63;29.05;;;;;;;13.83;85.96;102986.09;5072163;28;20056;-48
2022/11/12 10:51:32;;;;;;;45.15;28.35;;;;;;;13.95;82.57;102984.94;5072673;28;20036;-46
2022/11/12 10:53:57;;;;;;;;;;;;;;;14.54;89.81;102990.38;5073303;28;20541;-46
2022/11/12 10:56:27;;;;;;;41.53;27.25;;;;;;;14.57;79.07;102991.41;5073336;28;19908;-46
2022/11/12 10:59:29;;;;;;;45.53;28.40;;;;;;;14.84;82.84;102990.09;5072172;28;20021;-46
2022/11/12 11:01:57;;;;;;;39.55;26.60;;;;;;;14.55;75.19;102989.56;5072540;28;20036;-47
2022/11/12 11:04:34;;;;;;;40.47;26.88;;;;;;;14.49;74.87;102984.97;5072776;28;20028;-49
2022/11/12 11:07:04;;;;;;;39.70;24.90;;;;;;;14.95;71.26;102981.06;5072815;28;20030;-49
2022/11/12 11:09:30;;;;;;;43.00;25.05;;;;;;;14.94;70.18;102979.31;5072892;28;20047;-49
2022/11/12 11:11:56;;;;;;;39.15;23.83;;;;;;;14.80;66.94;102976.06;5071992;28;20024;-48
2022/11/12 11:14:21;;;;;;;38.22;24.15;;;;;;;14.97;67.66;102969.06;5073004;28;20029;-47
2022/11/12 11:16:50;;;;;;;41.47;24.63;;;;;;;14.59;67.43;102973.31;5072796;28;20108;-45
2022/11/12 11:19:16;;;;;;;40.63;25.48;;;;;;;14.66;66.56;102978.03;5072267;28;20305;-50
2022/11/12 11:21:47;;;;;;;37.05;25.08;;;;;;;14.59;64.47;102970.72;5072729;28;20025;-49
2022/11/12 11:24:32;;;;;;;43.35;26.65;;;;;;;14.56;67.46;102966.28;5072827;28;20357;-49
2022/11/12 11:27:22;;;;;;;38.90;25.85;;;;;;;14.25;64.76;102970.00;5071989;28;20075;-48
2022/11/12 11:30:02;;;;;;;38.78;26.33;;;;;;;14.08;64.76;102973.47;5041533;28;20430;-46
2022/11/12 11:32:43;;;;;;;41.50;27.17;;;;;;;13.98;67.58;102959.16;5072270;28;20055;-46